.
WxDataArchive / Data Records for 2013-09-15
2013-09-14 September 2013 2013-09-16

Data Records for Sunday, 15 September 2013

Time	Temp	Chill	HIndex	Humid	Dewpt	 Wind 	HiWind	WindDir	Rain 	Barom 
-----	----	-----	------	-----	-----	------	------	-------	-----	----- 
00:00	48.6	48.6	48.6	81	43.0	0	0	---	0.00	30.091 
00:05	48.5	48.5	48.5	81	42.9	0	0	---	0.00	30.091 
00:10	48.5	48.5	48.5	82	43.3	0	0	---	0.00	30.091 
00:15	48.3	48.3	48.3	82	43.1	0	0	---	0.00	30.089 
00:20	48.2	48.2	48.2	82	43.0	0	0	---	0.00	30.089 
00:25	48.2	48.2	48.2	82	43.0	0	0	---	0.00	30.089 
00:30	48.0	48.0	48.0	83	43.1	0	0	---	0.00	30.088 
00:35	47.9	47.9	47.9	83	43.0	0	0	---	0.00	30.088 
00:40	47.9	47.9	47.9	84	43.3	0	0	---	0.00	30.088 
00:45	47.7	47.7	47.7	84	43.1	0	0	---	0.00	30.082 
00:50	47.6	47.6	47.6	84	43.0	0	0	---	0.00	30.082 
00:55	47.4	47.4	47.4	84	42.8	0	0	---	0.00	30.082 
01:00	47.4	47.4	47.4	85	43.1	0	1	90	0.00	30.087 
01:05	47.3	47.3	47.3	86	43.3	0	0	---	0.00	30.087 
01:10	47.3	47.3	47.3	86	43.3	0	0	---	0.00	30.087 
01:15	47.1	47.1	47.1	87	43.4	0	0	---	0.00	30.083 
01:20	47.1	47.1	47.1	87	43.4	0	0	---	0.00	30.083 
01:25	47.0	47.0	47.0	87	43.3	0	0	---	0.00	30.083 
01:30	46.8	46.8	46.8	87	43.1	0	0	---	0.00	30.075 
01:35	46.8	46.8	46.8	88	43.4	0	0	---	0.00	30.075 
01:40	46.7	46.7	46.7	88	43.3	0	0	---	0.00	30.075 
01:45	46.5	46.5	46.5	88	43.1	0	0	---	0.00	30.074 
01:50	46.4	46.4	46.4	88	43.0	0	0	---	0.00	30.074 
01:55	46.2	46.2	46.2	88	42.8	0	0	---	0.00	30.074 
02:00	46.2	46.2	46.2	89	43.1	0	0	---	0.00	30.075 
02:05	46.1	46.1	46.1	89	43.0	0	0	---	0.00	30.075 
02:10	46.0	46.0	46.0	89	42.9	0	0	---	0.00	30.075 
02:15	46.0	46.0	46.0	89	42.9	0	0	---	0.00	30.074 
02:20	45.8	45.8	45.8	89	42.7	0	0	---	0.00	30.074 
02:25	45.8	45.8	45.8	89	42.7	0	0	---	0.00	30.074 
02:30	45.7	45.7	45.7	89	42.6	0	0	---	0.00	30.074 
02:35	45.7	45.7	45.7	90	42.9	0	0	---	0.00	30.074 
02:40	45.5	45.5	45.5	90	42.7	0	0	---	0.00	30.074 
02:45	45.5	45.5	45.5	90	42.7	0	0	---	0.00	30.077 
02:50	45.5	45.5	45.5	90	42.7	0	0	---	0.00	30.077 
02:55	45.4	45.4	45.4	90	42.6	0	0	---	0.00	30.077 
03:00	45.4	45.4	45.4	90	42.6	0	0	---	0.00	30.080 
03:05	45.4	45.4	45.4	90	42.6	0	0	---	0.00	30.080 
03:10	45.2	45.2	45.2	90	42.4	0	0	---	0.00	30.080 
03:15	45.2	45.2	45.2	90	42.4	0	0	---	0.00	30.076 
03:20	45.1	45.1	45.1	91	42.6	0	0	---	0.00	30.076 
03:25	45.1	45.1	45.1	91	42.6	0	0	---	0.00	30.076 
03:30	44.9	44.9	44.9	91	42.4	0	0	---	0.00	30.075 
03:35	44.9	44.9	44.9	91	42.4	0	0	---	0.00	30.075 
03:40	44.8	44.8	44.8	91	42.3	0	0	---	0.00	30.075 
03:45	44.8	44.8	44.8	91	42.3	0	0	---	0.00	30.079 
03:50	44.6	44.6	44.6	91	42.1	0	0	---	0.00	30.079 
03:55	44.6	44.6	44.6	91	42.1	0	0	---	0.00	30.079 
04:00	44.5	44.5	44.5	91	42.0	0	0	---	0.00	30.077 
04:05	44.3	44.3	44.3	91	41.8	0	0	---	0.00	30.077 
04:10	44.3	44.3	44.3	91	41.8	0	0	---	0.00	30.077 
04:15	44.3	44.3	44.3	91	41.8	0	0	---	0.00	30.080 
04:20	44.3	44.3	44.3	91	41.8	0	0	---	0.00	30.080 
04:25	44.3	44.3	44.3	91	41.8	0	0	---	0.00	30.080 
04:30	44.2	44.2	44.2	91	41.7	0	0	---	0.00	30.086 
04:35	44.2	44.2	44.2	91	41.7	0	0	---	0.00	30.086 
04:40	44.2	44.2	44.2	91	41.7	0	0	---	0.00	30.086 
04:45	44.2	44.2	44.2	92	42.0	0	0	---	0.00	30.088 
04:50	44.2	44.2	44.2	92	42.0	0	0	---	0.00	30.088 
04:55	44.2	44.2	44.2	92	42.0	0	0	---	0.00	30.088 
05:00	44.2	44.2	44.2	92	42.0	0	0	---	0.00	30.089 
05:05	44.3	44.3	44.3	92	42.1	0	0	---	0.00	30.089 
05:10	44.3	44.3	44.3	92	42.1	0	0	---	0.00	30.089 
05:15	44.5	44.5	44.5	92	42.3	0	0	---	0.00	30.089 
05:20	44.5	44.5	44.5	92	42.3	0	0	---	0.00	30.089 
05:25	44.6	44.6	44.6	92	42.4	0	0	---	0.00	30.089 
05:30	44.8	44.8	44.8	92	42.6	0	0	---	0.00	30.093 
05:35	44.9	44.9	44.9	92	42.7	0	0	---	0.00	30.093 
05:40	45.1	45.1	45.1	92	42.9	0	0	---	0.00	30.093 
05:45	45.1	45.1	45.1	92	42.9	0	0	---	0.00	30.091 
05:50	45.1	45.1	45.1	92	42.9	0	0	---	0.00	30.091 
05:55	45.1	45.1	45.1	92	42.9	0	0	---	0.00	30.091 
06:00	45.1	45.1	45.1	92	42.9	0	0	---	0.00	30.091 
06:05	45.1	45.1	45.1	92	42.9	0	0	---	0.00	30.091 
06:10	45.1	45.1	45.1	92	42.9	0	0	---	0.00	30.091 
06:15	45.2	45.2	45.2	92	43.0	0	0	---	0.00	30.097 
06:20	45.2	45.2	45.2	92	43.0	0	0	---	0.00	30.097 
06:25	45.2	45.2	45.2	92	43.0	0	0	---	0.00	30.097 
06:30	45.4	45.4	45.4	92	43.2	0	0	---	0.00	30.100 
06:35	45.4	45.4	45.4	92	43.2	0	0	---	0.00	30.100 
06:40	45.5	45.5	45.5	92	43.3	0	0	---	0.00	30.100 
06:45	45.7	45.7	45.7	92	43.5	0	0	---	0.00	30.100 
06:50	45.8	45.8	45.8	92	43.6	0	0	---	0.00	30.100 
06:55	45.8	45.8	45.8	92	43.6	0	0	---	0.00	30.100 
07:00	45.8	45.8	45.8	92	43.6	0	0	---	0.00	30.102 
07:05	46.0	46.0	46.0	92	43.8	0	0	---	0.00	30.102 
07:10	46.0	46.0	46.0	92	43.8	0	0	---	0.00	30.102 
07:15	46.1	46.1	46.1	92	43.9	0	0	---	0.00	30.107 
07:20	46.0	46.0	46.0	91	43.5	0	0	---	0.00	30.107 
07:25	46.0	46.0	46.0	91	43.5	0	0	---	0.00	30.107 
07:30	46.0	46.0	46.0	91	43.5	0	0	---	0.00	30.110 
07:35	45.8	45.8	45.8	91	43.3	0	0	---	0.00	30.110 
07:40	46.0	46.0	46.0	91	43.5	0	0	---	0.00	30.110 
07:45	46.0	46.0	46.0	91	43.5	0	0	---	0.00	30.113 
07:50	46.0	46.0	46.0	91	43.5	0	0	---	0.00	30.113 
07:55	46.1	46.1	46.1	92	43.9	0	0	---	0.00	30.113 
08:00	46.2	46.2	46.2	92	44.0	0	0	---	0.00	30.120 
08:05	46.2	46.2	46.2	92	44.0	0	0	---	0.00	30.120 
08:10	46.5	46.5	46.5	92	44.3	0	0	---	0.00	30.120 
08:15	46.8	46.8	46.8	92	44.6	0	0	---	0.00	30.124 
08:20	47.1	47.1	47.1	92	44.9	0	0	---	0.00	30.124 
08:25	47.4	47.4	47.4	92	45.2	0	0	---	0.00	30.124 
08:30	47.9	47.9	47.9	92	45.7	0	0	---	0.00	30.123 
08:35	48.2	48.2	48.2	92	46.0	0	0	---	0.00	30.123 
08:40	48.6	48.6	48.6	92	46.4	0	0	---	0.00	30.123 
08:45	48.9	48.9	48.9	91	46.4	0	0	---	0.00	30.116 
08:50	49.2	49.2	49.2	91	46.7	0	0	---	0.00	30.116 
08:55	49.6	49.6	49.6	90	46.8	0	0	---	0.00	30.116 
09:00	49.9	49.9	49.9	88	46.5	0	1	90	0.00	30.112 
09:05	50.4	50.4	50.4	87	46.7	0	0	---	0.00	30.112 
09:10	50.8	50.8	50.8	87	47.1	0	0	---	0.00	30.112 
09:15	51.3	51.3	51.3	85	46.9	0	0	---	0.00	30.114 
09:20	51.7	51.7	51.7	84	47.0	0	1	90	0.00	30.114 
09:25	52.2	52.2	52.2	83	47.2	0	1	90	0.00	30.114 
09:30	52.6	52.6	52.6	81	46.9	0	1	90	0.00	30.112 
09:35	53.1	53.1	53.1	81	47.4	0	1	90	0.00	30.112 
09:40	53.5	53.5	53.5	80	47.5	0	1	90	0.00	30.112 
09:45	53.9	53.9	53.9	79	47.5	0	0	---	0.00	30.113 
09:50	54.5	54.5	54.5	78	47.8	0	0	---	0.00	30.113 
09:55	55.0	55.0	55.0	77	47.9	0	1	90	0.00	30.113 
10:00	55.6	55.6	55.6	77	48.5	0	0	---	0.00	30.110 
10:05	56.2	56.2	56.2	76	48.7	0	0	---	0.00	30.110 
10:10	56.6	56.6	56.6	74	48.4	0	1	90	0.00	30.110 
10:15	56.9	56.9	56.9	73	48.3	0	1	90	0.00	30.110 
10:20	57.3	57.3	57.3	72	48.3	0	1	90	0.00	30.110 
10:25	57.8	57.8	57.8	70	48.1	0	2	90	0.00	30.110 
10:30	58.1	58.1	58.1	69	48.0	0	2	90	0.00	30.106 
10:35	58.6	58.6	58.6	69	48.5	0	1	90	0.00	30.106 
10:40	59.0	59.0	59.0	68	48.5	0	0	---	0.00	30.106 
10:45	59.6	59.6	59.6	68	49.0	0	1	90	0.00	30.102 
10:50	60.1	60.1	60.1	66	48.7	0	2	90	0.00	30.102 
10:55	60.5	60.5	60.5	65	48.7	0	2	90	0.00	30.102 
11:00	60.9	60.9	60.9	65	49.1	0	1	90	0.00	30.097 
11:05	61.3	61.3	61.3	64	49.0	0	1	90	0.00	30.097 
11:10	61.6	61.6	61.6	64	49.3	0	2	90	0.00	30.097 
11:15	62.0	62.0	62.0	63	49.3	0	1	90	0.00	30.102 
11:20	62.1	62.1	62.1	62	48.9	0	2	90	0.00	30.102 
11:25	62.4	62.4	62.4	60	48.3	0	1	90	0.00	30.102 
11:30	62.7	62.7	62.7	60	48.6	0	3	270	0.00	30.093 
11:35	63.7	63.7	63.7	58	48.6	0	2	270	0.00	30.093 
11:40	64.2	64.2	64.2	58	49.1	0	2	270	0.00	30.093 
11:45	64.5	64.5	64.5	56	48.4	0	2	270	0.00	30.090 
11:50	65.0	65.0	65.0	55	48.4	0	1	270	0.00	30.090 
11:55	65.5	65.5	65.5	55	48.9	0	2	270	0.00	30.090 
12:00	66.1	66.1	66.1	53	48.5	0	2	270	0.00	30.074 
12:05	66.8	66.8	66.8	53	49.1	0	3	90	0.00	30.074 
12:10	67.1	67.1	67.1	52	48.9	0	2	90	0.00	30.074 
12:15	67.4	67.4	67.4	52	49.2	0	1	90	0.00	30.071 
12:20	68.4	68.4	68.4	50	49.0	0	2	90	0.00	30.071 
12:25	69.6	69.6	69.6	46	47.9	1	3	90	0.00	30.071 
12:30	70.1	70.1	70.1	46	48.3	0	1	338	0.00	30.061 
12:35	70.1	70.1	70.1	47	48.9	1	4	270	0.00	30.061 
12:40	70.3	70.3	70.3	43	46.7	1	9	270	0.00	30.061 
12:45	70.1	70.1	70.1	43	46.6	1	5	68	0.00	30.063 
12:50	69.9	69.9	69.9	42	45.8	1	4	68	0.00	30.063 
12:55	69.6	69.6	69.6	45	47.3	1	3	315	0.00	30.063 
13:00	69.8	69.8	69.8	43	46.3	1	3	338	0.00	30.056 
13:05	69.8	69.8	69.8	43	46.3	1	3	315	0.00	30.056 
13:10	69.9	69.9	69.9	44	47.0	0	2	315	0.00	30.056 
13:15	70.1	70.1	70.1	45	47.8	1	2	315	0.00	30.056 
13:20	69.9	69.9	69.9	42	45.8	1	3	270	0.00	30.056 
13:25	69.8	69.8	69.8	42	45.7	1	4	270	0.00	30.056 
13:30	69.8	69.8	69.8	45	47.5	0	2	270	0.00	30.054 
13:35	70.3	70.3	70.3	43	46.7	1	2	270	0.00	30.054 
13:40	70.8	70.8	70.8	40	45.3	1	3	270	0.00	30.054 
13:45	70.8	70.8	70.8	40	45.3	1	3	270	0.00	30.054 
13:50	70.8	70.8	70.8	42	46.6	0	1	270	0.00	30.054 
13:55	70.9	70.9	70.9	40	45.4	0	2	270	0.00	30.054 
14:00	70.9	70.9	70.9	40	45.4	0	3	270	0.00	30.054 
14:05	70.4	70.4	70.4	41	45.6	1	3	270	0.00	30.054 
14:10	70.3	70.3	70.3	41	45.5	0	4	270	0.00	30.054 
14:15	70.1	70.1	70.1	41	45.3	0	1	270	0.00	30.055 
14:20	69.9	69.9	69.9	42	45.8	0	1	270	0.00	30.055 
14:25	69.8	69.8	69.8	41	45.0	1	3	270	0.00	30.055 
14:30	69.8	69.8	69.8	45	47.5	0	1	270	0.00	30.050 
14:35	69.9	69.9	69.9	43	46.4	0	1	270	0.00	30.050 
14:40	70.1	70.1	70.1	42	45.9	0	2	270	0.00	30.050 
14:45	70.4	70.4	70.4	42	46.2	0	1	270	0.00	30.049 
14:50	70.3	70.3	70.3	43	46.7	0	1	270	0.00	30.049 
14:55	70.1	70.1	70.1	44	47.2	0	1	270	0.00	30.049 
15:00	69.8	69.8	69.8	42	45.7	0	1	270	0.00	30.041 
15:05	69.6	69.6	69.6	42	45.5	0	1	270	0.00	30.041 
15:10	69.4	69.4	69.4	41	44.7	0	2	270	0.00	30.041 
15:15	69.4	69.4	69.4	42	45.3	0	2	270	0.00	30.043 
15:20	69.4	69.4	69.4	41	44.7	0	2	270	0.00	30.043 
15:25	69.4	69.4	69.4	42	45.3	0	1	270	0.00	30.043 
15:30	69.6	69.6	69.6	42	45.5	0	1	270	0.00	30.041 
15:35	69.6	69.6	69.6	42	45.5	0	1	270	0.00	30.041 
15:40	69.8	69.8	69.8	42	45.7	0	2	270	0.00	30.041 
15:45	69.9	69.9	69.9	42	45.8	0	2	270	0.00	30.029 
15:50	69.9	69.9	69.9	42	45.8	0	2	270	0.00	30.029 
15:55	70.1	70.1	70.1	42	45.9	0	1	270	0.00	30.029 
16:00	70.4	70.4	70.4	42	46.2	0	1	270	0.00	30.024 
16:05	70.6	70.6	70.6	41	45.7	0	3	270	0.00	30.024 
16:10	70.6	70.6	70.6	41	45.7	0	2	270	0.00	30.024 
16:15	70.4	70.4	70.4	43	46.8	0	1	270	0.00	30.009 
16:20	70.3	70.3	70.3	45	47.9	0	1	270	0.00	30.009 
16:25	69.9	69.9	69.9	46	48.2	0	1	270	0.00	30.009 
16:30	69.8	69.8	69.8	45	47.5	0	1	270	0.00	30.001 
16:35	69.4	69.4	69.4	44	46.5	0	1	270	0.00	30.001 
16:40	69.4	69.4	69.4	45	47.1	0	0	---	0.00	30.001 
16:45	69.3	69.3	69.3	45	47.0	0	1	270	0.00	30.009 
16:50	69.3	69.3	69.3	45	47.0	0	0	---	0.00	30.009 
16:55	69.1	69.1	69.1	46	47.4	0	0	---	0.00	30.009 
17:00	68.9	68.9	68.9	47	47.8	0	0	---	0.00	30.011 
17:05	68.8	68.8	68.8	46	47.2	0	1	270	0.00	30.011 
17:10	68.8	68.8	68.8	46	47.2	0	1	270	0.00	30.011 
17:15	68.8	68.8	68.8	47	47.7	0	0	---	0.00	30.018 
17:20	68.6	68.6	68.6	48	48.1	0	1	270	0.00	30.018 
17:25	68.6	68.6	68.6	48	48.1	0	1	270	0.00	30.018 
17:30	68.4	68.4	68.4	48	47.9	0	2	270	0.00	30.038 
17:35	68.3	68.3	68.3	49	48.4	0	1	270	0.00	30.038 
17:40	68.1	68.1	68.1	50	48.7	0	1	270	0.00	30.038 
17:45	67.8	67.8	67.8	51	49.0	0	1	270	0.00	30.043 
17:50	67.6	67.6	67.6	53	49.9	0	1	270	0.00	30.043 
17:55	67.3	67.3	67.3	55	50.6	0	1	270	0.00	30.043 
18:00	66.6	66.6	66.6	58	51.4	0	3	270	0.00	30.068 
18:05	66.1	66.1	66.1	59	51.3	0	2	292	0.00	30.068 
18:10	65.5	65.5	65.5	62	52.1	1	3	292	0.00	30.068 
18:15	64.2	64.2	64.2	65	52.2	1	3	292	0.01	30.074 
18:20	63.1	63.1	63.1	69	52.8	1	2	292	0.00	30.074 
18:25	62.1	62.1	62.1	73	53.3	0	1	292	0.02	30.074 
18:30	61.2	61.2	61.2	77	53.9	0	1	292	0.00	30.079 
18:35	60.4	60.4	60.4	80	54.2	0	2	292	0.00	30.079 
18:40	59.9	59.9	59.9	82	54.4	0	0	---	0.01	30.079 
18:45	59.6	59.6	59.6	84	54.8	0	1	292	0.01	30.075 
18:50	59.3	59.3	59.3	84	54.5	0	0	---	0.00	30.075 
18:55	59.2	59.2	59.2	85	54.7	0	1	292	0.00	30.075 
19:00	59.0	59.0	59.0	86	54.8	0	1	292	0.00	30.078 
19:05	59.0	59.0	59.0	87	55.1	0	1	292	0.00	30.078 
19:10	58.9	58.9	58.9	87	55.0	0	0	---	0.00	30.078 
19:15	58.9	58.9	58.9	88	55.3	0	0	---	0.00	30.079 
19:20	58.9	58.9	58.9	88	55.3	0	2	292	0.00	30.079 
19:25	58.7	58.7	58.7	88	55.2	0	2	292	0.00	30.079 
19:30	58.9	58.9	58.9	89	55.7	0	1	292	0.00	30.067 
19:35	58.9	58.9	58.9	89	55.7	0	0	---	0.00	30.067 
19:40	58.7	58.7	58.7	89	55.5	0	1	292	0.00	30.067 
19:45	58.7	58.7	58.7	89	55.5	0	2	292	0.00	30.068 
19:50	58.7	58.7	58.7	89	55.5	0	0	---	0.00	30.068 
19:55	58.6	58.6	58.6	89	55.4	1	4	135	0.01	30.068 
20:00	58.4	58.4	58.4	89	55.2	1	3	135	0.00	30.064 
20:05	58.3	58.3	58.3	89	55.1	1	4	135	0.00	30.064 
20:10	58.3	58.3	58.3	90	55.4	0	2	90	0.00	30.064 
20:15	58.3	58.3	58.3	90	55.4	0	2	90	0.00	30.068 
20:20	58.1	58.1	58.1	90	55.2	1	3	90	0.00	30.068 
20:25	58.1	58.1	58.1	91	55.5	1	4	90	0.00	30.068 
20:30	58.1	58.1	58.1	91	55.5	0	1	90	0.00	30.077 
20:35	58.1	58.1	58.1	91	55.5	0	1	90	0.00	30.077 
20:40	58.1	58.1	58.1	91	55.5	0	1	90	0.00	30.077 
20:45	58.1	58.1	58.1	91	55.5	0	2	90	0.00	30.084 
20:50	58.0	58.0	58.0	91	55.4	1	2	90	0.00	30.084 
20:55	58.0	58.0	58.0	91	55.4	0	2	90	0.00	30.084 
21:00	58.0	58.0	58.0	92	55.7	1	3	90	0.00	30.091 
21:05	58.0	58.0	58.0	92	55.7	1	4	68	0.01	30.091 
21:10	58.0	58.0	58.0	92	55.7	1	3	68	0.00	30.091 
21:15	57.8	57.8	57.8	92	55.5	1	4	68	0.01	30.088 
21:20	57.8	57.8	57.8	92	55.5	1	2	68	0.00	30.088 
21:25	57.6	57.6	57.6	93	55.6	2	4	68	0.01	30.088 
21:30	57.6	57.6	57.6	93	55.6	1	4	112	0.00	30.102 
21:35	57.6	57.6	57.6	93	55.6	1	3	68	0.01	30.102 
21:40	57.5	57.5	57.5	93	55.5	1	3	68	0.01	30.102 
21:45	57.3	57.3	57.3	93	55.3	0	2	68	0.00	30.112 
21:50	57.0	57.0	57.0	93	55.0	1	3	68	0.00	30.112 
21:55	56.9	56.9	56.9	93	54.9	0	2	90	0.00	30.112 
22:00	56.9	56.9	56.9	93	54.9	0	1	90	0.02	30.120 
22:05	56.9	56.9	56.9	93	54.9	0	3	90	0.00	30.120 
22:10	56.9	56.9	56.9	93	54.9	0	3	90	0.01	30.120 
22:15	56.7	56.7	56.7	93	54.7	1	4	90	0.03	30.116 
22:20	56.6	56.6	56.6	94	54.9	1	3	90	0.01	30.116 
22:25	56.6	56.6	56.6	94	54.9	1	5	112	0.01	30.116 
22:30	56.5	56.5	56.5	94	54.8	1	4	112	0.00	30.115 
22:35	56.5	56.5	56.5	94	54.8	1	2	112	0.00	30.115 
22:40	56.5	56.5	56.5	94	54.8	1	3	112	0.01	30.115 
22:45	56.3	56.3	56.3	94	54.6	0	2	112	0.00	30.118 
22:50	56.5	56.5	56.5	94	54.8	0	2	112	0.00	30.118 
22:55	56.3	56.3	56.3	94	54.6	1	4	90	0.00	30.118 
23:00	56.3	56.3	56.3	94	54.6	0	1	90	0.00	30.118 
23:05	56.3	56.3	56.3	95	54.9	1	4	90	0.00	30.118 
23:10	56.3	56.3	56.3	95	54.9	1	3	90	0.00	30.118 
23:15	56.3	56.3	56.3	95	54.9	0	2	90	0.00	30.111 
23:20	56.3	56.3	56.3	95	54.9	0	2	90	0.00	30.111 
23:25	56.3	56.3	56.3	95	54.9	1	3	90	0.00	30.111 
23:30	56.3	56.3	56.3	95	54.9	0	1	90	0.00	30.108 
23:35	56.3	56.3	56.3	95	54.9	1	2	90	0.00	30.108 
23:40	56.3	56.3	56.3	95	54.9	0	1	90	0.00	30.108 
23:45	56.3	56.3	56.3	95	54.9	1	3	90	0.00	30.105 
23:50	56.2	56.2	56.2	95	54.8	1	4	90	0.00	30.105 
23:55	56.2	56.2	56.2	95	54.8	0	2	90	0.00	30.105 

CoCoRaHS
IN-AL-39
A2 Web Hosting
Creative Commons License
GoDaddy
search engine by freefind advanced

loaded 2018-11-19 10:34:10 • last modified 2010-11-18 10:43:29
Privacy PolicyDisclaimer
• wx.awcolley.com is powered by PmWiki v.2002016 •
• all content (unless otherwise noted) © 2018 A W Colley